Time;durP1;ratioP1;P1;durP2;ratioP2;P2;SDS_P1;SDS_P2;PMS_P1;PMS_P2;Temp;Humidity;BMP_temperature;BMP_pressure;BME280_temperature;BME280_humidity;BME280_pressure;Samples;Min_cycle;Max_cycle;Signal;HPM_P1;HPM_P2
2023/08/25 00:00:56;;;;;;;10.07;9.05;;;32.90;99.90;;;;;;4993566;28;20046;-47
2023/08/25 00:03:22;;;;;;;9.98;8.98;;;32.90;99.90;;;;;;4994614;28;20018;-48
2023/08/25 00:05:53;;;;;;;10.55;9.20;;;32.90;99.90;;;;;;4994303;28;20023;-48
2023/08/25 00:08:19;;;;;;;9.65;8.48;;;32.90;99.90;;;;;;4994171;28;20486;-48
2023/08/25 00:10:44;;;;;;;9.75;8.75;;;32.90;99.90;;;;;;4994237;28;20113;-48
2023/08/25 00:13:10;;;;;;;9.57;8.68;;;32.90;99.90;;;;;;4994238;28;20461;-48
2023/08/25 00:15:36;;;;;;;9.65;8.65;;;32.90;99.90;;;;;;4994215;28;20096;-47
2023/08/25 00:18:02;;;;;;;9.77;8.75;;;32.90;99.90;;;;;;4994010;28;20073;-47
2023/08/25 00:20:29;;;;;;;8.85;8.02;;;32.90;99.90;;;;;;4994195;28;20057;-47
2023/08/25 00:22:55;;;;;;;;;;;32.80;99.90;;;;;;4994582;28;20034;-48
2023/08/25 00:25:20;;;;;;;9.18;8.32;;;32.80;99.90;;;;;;4993955;28;19905;-49
2023/08/25 00:27:46;;;;;;;9.48;8.57;;;32.80;99.90;;;;;;4993757;28;20038;-48
2023/08/25 00:30:12;;;;;;;9.07;8.18;;;32.80;99.90;;;;;;4993720;28;20026;-48
2023/08/25 00:32:38;;;;;;;8.85;8.05;;;32.80;99.90;;;;;;4993890;28;20030;-47
2023/08/25 00:35:05;;;;;;;9.88;8.95;;;32.80;99.90;;;;;;4993878;28;20027;-48
2023/08/25 00:37:31;;;;;;;9.40;8.50;;;32.80;99.90;;;;;;4993873;28;20023;-47
2023/08/25 00:39:57;;;;;;;9.23;8.23;;;32.80;99.90;;;;;;4993837;28;20081;-48
2023/08/25 00:42:22;;;;;;;8.30;7.43;;;32.80;99.90;;;;;;4993873;28;20037;-48
2023/08/25 00:44:48;;;;;;;9.68;8.77;;;32.80;99.90;;;;;;4993689;28;20105;-47
2023/08/25 00:47:14;;;;;;;9.60;8.60;;;32.80;99.90;;;;;;4993309;28;20034;-47
2023/08/25 00:49:41;;;;;;;9.95;8.95;;;32.80;99.90;;;;;;4993554;28;20022;-48
2023/08/25 00:52:07;;;;;;;8.98;7.93;;;32.70;99.90;;;;;;4993503;28;20156;-48
2023/08/25 00:54:34;;;;;;;8.93;8.03;;;32.80;99.90;;;;;;4993458;28;20018;-48
2023/08/25 00:57:02;;;;;;;9.20;8.30;;;32.70;99.90;;;;;;4993547;28;20031;-48
2023/08/25 00:59:29;;;;;;;8.75;7.90;;;32.70;99.90;;;;;;4993461;28;20033;-48
2023/08/25 01:01:56;;;;;;;9.57;8.65;;;32.70;99.90;;;;;;4994040;28;20042;-47
2023/08/25 01:04:22;;;;;;;8.88;8.00;;;32.70;99.90;;;;;;4993376;28;20042;-48
2023/08/25 01:06:48;;;;;;;7.78;7.03;;;32.80;99.90;;;;;;4993284;28;20022;-48
2023/08/25 01:09:14;;;;;;;9.18;7.80;;;32.70;99.90;;;;;;4993114;28;20390;-47
2023/08/25 01:11:59;;;;;;;8.95;7.68;;;32.70;99.90;;;;;;4993190;28;20101;-48
2023/08/25 01:14:41;;;;;;;9.55;8.55;;;32.70;99.90;;;;;;4993169;28;20081;-47
2023/08/25 01:17:17;;;;;;;8.38;7.57;;;32.70;99.90;;;;;;4975527;28;20019;-47
2023/08/25 01:20:06;;;;;;;10.02;8.25;;;32.70;99.90;;;;;;4991870;28;20113;-47
2023/08/25 01:22:59;;;;;;;9.98;7.35;;;32.70;99.90;;;;;;4993162;28;20054;-47
2023/08/25 01:25:29;;;;;;;8.50;7.70;;;32.70;99.90;;;;;;4993110;28;20023;-49
2023/08/25 01:27:57;;;;;;;8.38;7.57;;;32.70;99.90;;;;;;4992951;28;20030;-48
2023/08/25 01:30:24;;;;;;;8.20;7.40;;;32.70;99.90;;;;;;4992933;28;20418;-48
2023/08/25 01:32:51;;;;;;;7.97;7.05;;;32.70;99.90;;;;;;4991586;28;20113;-47
2023/08/25 01:35:19;;;;;;;8.10;7.30;;;32.70;99.90;;;;;;4992773;28;20064;-47
2023/08/25 01:38:02;;;;;;;8.52;7.72;;;32.70;99.90;;;;;;4993034;28;20023;-47
2023/08/25 01:40:53;;;;;;;8.98;8.07;;;32.60;99.90;;;;;;4993177;28;20053;-48
2023/08/25 01:43:22;;;;;;;8.77;7.78;;;32.60;99.90;;;;;;4992397;28;20386;-48
2023/08/25 01:45:49;;;;;;;8.82;7.93;;;32.60;99.90;;;;;;4992831;28;20037;-48
2023/08/25 01:48:16;;;;;;;8.98;7.53;;;32.60;99.90;;;;;;4992724;28;20056;-48
2023/08/25 01:50:43;;;;;;;7.95;7.15;;;32.60;99.90;;;;;;4992800;28;20027;-47
2023/08/25 01:53:09;;;;;;;8.35;7.50;;;32.60;99.90;;;;;;4992567;28;20022;-47
2023/08/25 01:55:35;;;;;;;8.90;8.00;;;32.60;99.90;;;;;;4992678;28;20072;-48
2023/08/25 01:58:02;;;;;;;10.25;8.02;;;32.60;99.90;;;;;;4992727;28;20026;-48
2023/08/25 02:00:28;;;;;;;;;;;32.60;99.90;;;;;;5007360;23;20414;-53
2023/08/25 02:02:55;;;;;;;8.77;7.88;;;32.60;99.90;;;;;;4996762;28;19956;-54
2023/08/25 02:05:22;;;;;;;10.45;8.55;;;32.50;99.90;;;;;;4996832;28;20060;-57
2023/08/25 02:07:48;;;;;;;9.27;8.38;;;32.60;99.90;;;;;;4996455;28;20042;-54
2023/08/25 02:10:14;;;;;;;9.13;8.23;;;32.50;99.90;;;;;;4996581;28;20015;-53
2023/08/25 02:12:40;;;;;;;9.23;8.32;;;32.50;99.90;;;;;;4995407;28;20118;-54
2023/08/25 02:15:06;;;;;;;9.77;7.90;;;32.50;99.90;;;;;;4996660;28;20026;-54
2023/08/25 02:17:32;;;;;;;9.50;8.50;;;32.50;99.90;;;;;;4995272;28;20027;-55
2023/08/25 02:19:58;;;;;;;9.45;8.43;;;32.50;99.90;;;;;;4995421;28;20088;-55
2023/08/25 02:22:23;;;;;;;9.05;8.15;;;32.50;99.90;;;;;;4996477;28;20019;-55
2023/08/25 02:24:49;;;;;;;9.50;8.60;;;32.50;99.90;;;;;;4979070;28;20037;-55
2023/08/25 02:27:15;;;;;;;9.82;8.55;;;32.50;99.90;;;;;;4996353;28;20031;-54
2023/08/25 02:29:41;;;;;;;8.77;7.88;;;32.50;99.90;;;;;;4996306;28;20034;-55
2023/08/25 02:32:07;;;;;;;8.85;7.95;;;32.50;99.90;;;;;;4994892;28;20105;-56
2023/08/25 02:34:32;;;;;;;9.50;8.07;;;32.50;99.90;;;;;;4996394;28;20030;-55
2023/08/25 02:36:58;;;;;;;8.38;7.57;;;32.50;99.90;;;;;;4996582;28;20027;-55
2023/08/25 02:39:24;;;;;;;8.82;7.82;;;32.50;99.90;;;;;;4996135;28;20076;-55
2023/08/25 02:41:50;;;;;;;9.45;8.55;;;32.50;99.90;;;;;;4996173;28;20073;-55
2023/08/25 02:44:15;;;;;;;8.98;8.07;;;32.50;99.90;;;;;;4994815;28;20081;-55
2023/08/25 02:46:43;;;;;;;8.60;7.70;;;32.50;99.90;;;;;;4996020;28;20154;-56
2023/08/25 02:49:08;;;;;;;;;;;32.40;99.90;;;;;;4996730;28;20390;-56
2023/08/25 02:51:34;;;;;;;8.70;7.70;;;32.40;99.90;;;;;;4995939;28;19906;-57
2023/08/25 02:54:00;;;;;;;8.45;7.65;;;32.40;99.90;;;;;;4995962;28;20034;-56
2023/08/25 02:56:26;;;;;;;9.20;8.30;;;32.40;99.90;;;;;;4995672;28;20030;-56
2023/08/25 02:58:51;;;;;;;9.07;8.18;;;32.40;99.90;;;;;;4995812;28;20049;-56
2023/08/25 03:01:17;;;;;;;8.65;7.75;;;32.40;99.90;;;;;;5007407;23;20058;-48
2023/08/25 03:03:44;;;;;;;8.90;8.00;;;32.40;99.90;;;;;;4994456;28;20037;-47
2023/08/25 03:06:10;;;;;;;9.35;8.05;;;32.30;99.90;;;;;;4994457;28;20048;-47
2023/08/25 03:08:35;;;;;;;8.50;7.70;;;32.40;99.90;;;;;;4995438;28;20056;-47
2023/08/25 03:11:03;;;;;;;8.55;7.65;;;32.40;99.90;;;;;;4995534;28;20037;-47
2023/08/25 03:13:30;;;;;;;8.70;7.80;;;32.40;99.90;;;;;;4995487;28;20478;-47
2023/08/25 03:15:55;;;;;;;;;;;32.40;99.90;;;;;;4995978;28;20026;-47
2023/08/25 03:18:21;;;;;;;9.02;7.78;;;32.30;99.90;;;;;;4995445;28;19913;-47
2023/08/25 03:20:51;;;;;;;9.05;8.15;;;32.30;99.90;;;;;;4995318;28;20367;-47
2023/08/25 03:23:17;;;;;;;8.88;7.88;;;32.30;99.90;;;;;;4995314;28;20034;-47
2023/08/25 03:25:43;;;;;;;9.05;8.15;;;32.30;99.90;;;;;;4995209;28;20034;-46
2023/08/25 03:28:09;;;;;;;8.77;7.88;;;32.30;99.90;;;;;;4994986;28;20034;-47
2023/08/25 03:30:35;;;;;;;9.38;8.48;;;32.30;99.90;;;;;;4995390;28;20105;-47
2023/08/25 03:33:02;;;;;;;8.98;8.07;;;32.30;99.90;;;;;;4995179;28;20532;-47
2023/08/25 03:35:27;;;;;;;8.63;7.72;;;32.30;99.90;;;;;;4994992;28;20026;-48
2023/08/25 03:37:53;;;;;;;8.60;7.70;;;32.30;99.90;;;;;;4995064;28;20033;-47
2023/08/25 03:40:19;;;;;;;8.27;7.47;;;32.20;99.90;;;;;;4994959;28;20445;-47
2023/08/25 03:42:45;;;;;;;8.32;7.53;;;32.20;99.90;;;;;;4994866;28;20094;-47
2023/08/25 03:45:11;;;;;;;9.27;8.38;;;32.20;99.90;;;;;;4993553;28;20493;-47
2023/08/25 03:47:37;;;;;;;7.72;6.97;;;32.20;99.90;;;;;;4994671;28;20034;-47
2023/08/25 03:50:02;;;;;;;8.90;8.00;;;32.30;99.90;;;;;;4994920;28;20105;-46
2023/08/25 03:52:28;;;;;;;8.77;7.93;;;32.20;99.90;;;;;;4994731;28;20426;-47
2023/08/25 03:54:54;;;;;;;8.65;7.75;;;32.20;99.90;;;;;;4995081;28;20023;-47
2023/08/25 03:57:20;;;;;;;9.68;7.57;;;32.20;99.90;;;;;;4994696;28;20368;-47
2023/08/25 03:59:45;;;;;;;8.75;7.60;;;32.20;99.90;;;;;;4994507;28;20030;-47
2023/08/25 04:02:11;;;;;;;9.20;7.80;;;32.20;99.90;;;;;;4994895;28;20228;-47
2023/08/25 04:04:37;;;;;;;8.55;7.65;;;32.20;99.90;;;;;;4994412;28;20026;-47
2023/08/25 04:07:03;;;;;;;10.23;7.80;;;32.20;99.90;;;;;;4994634;28;20018;-47
2023/08/25 04:09:29;;;;;;;8.45;7.65;;;32.20;99.90;;;;;;4994281;28;20045;-46
2023/08/25 04:11:55;;;;;;;9.60;7.75;;;32.20;99.90;;;;;;4994230;28;20034;-46
2023/08/25 04:14:22;;;;;;;8.77;7.88;;;32.20;99.90;;;;;;4994066;28;20030;-46
2023/08/25 04:16:47;;;;;;;8.90;7.90;;;32.10;99.90;;;;;;4994240;28;20389;-47
2023/08/25 04:19:16;;;;;;;8.75;7.68;;;32.10;99.90;;;;;;4993922;28;20034;-47
2023/08/25 04:21:43;;;;;;;8.80;7.95;;;32.10;99.90;;;;;;4994083;28;20401;-47
2023/08/25 04:24:09;;;;;;;9.68;8.05;;;32.10;99.90;;;;;;4993879;28;20030;-46
2023/08/25 04:26:35;;;;;;;9.48;7.68;;;32.10;99.90;;;;;;4994270;28;20106;-47
2023/08/25 04:29:01;;;;;;;8.27;7.43;;;32.20;99.90;;;;;;4993827;28;20113;-47
2023/08/25 04:31:26;;;;;;;8.57;7.68;;;32.10;99.90;;;;;;4993883;28;20034;-47
2023/08/25 04:33:52;;;;;;;8.75;7.85;;;32.10;99.90;;;;;;4993862;28;20058;-47
2023/08/25 04:36:18;;;;;;;9.00;8.10;;;32.10;99.90;;;;;;4992645;28;20017;-47
2023/08/25 04:38:43;;;;;;;9.43;7.72;;;32.10;99.90;;;;;;4993923;28;20027;-47
2023/08/25 04:41:09;;;;;;;9.25;7.30;;;32.10;99.90;;;;;;4993766;28;20038;-47
2023/08/25 04:43:35;;;;;;;8.10;7.30;;;32.10;99.90;;;;;;4993914;28;20033;-47
2023/08/25 04:46:01;;;;;;;9.02;7.40;;;32.10;99.90;;;;;;4993582;28;20038;-48
2023/08/25 04:48:26;;;;;;;8.98;7.07;;;32.10;99.90;;;;;;4993481;28;20162;-47
2023/08/25 04:50:52;;;;;;;8.63;7.78;;;32.00;99.90;;;;;;4993585;28;20455;-47
2023/08/25 04:53:18;;;;;;;8.70;7.78;;;32.00;99.90;;;;;;4993417;28;20440;-47
2023/08/25 04:55:44;;;;;;;9.15;7.85;;;32.10;99.90;;;;;;4993611;28;20033;-48
2023/08/25 04:58:10;;;;;;;8.60;7.75;;;32.00;99.90;;;;;;4993707;28;20026;-47
2023/08/25 05:00:36;;;;;;;8.93;8.02;;;32.00;99.90;;;;;;4993602;28;20018;-47
2023/08/25 05:03:02;;;;;;;8.73;7.82;;;32.00;99.90;;;;;;4993302;28;20037;-48
2023/08/25 05:05:27;;;;;;;9.15;8.13;;;32.00;99.90;;;;;;4992072;28;20061;-48
2023/08/25 05:07:53;;;;;;;9.52;8.38;;;32.00;99.90;;;;;;4993358;28;20035;-47
2023/08/25 05:10:19;;;;;;;9.25;8.32;;;32.00;99.90;;;;;;4993378;28;20496;-48
2023/08/25 05:12:45;;;;;;;9.00;8.10;;;32.00;99.90;;;;;;4992079;28;20045;-48
2023/08/25 05:15:10;;;;;;;9.32;8.13;;;32.00;99.90;;;;;;4993403;28;20034;-48
2023/08/25 05:17:36;;;;;;;10.10;8.43;;;32.00;99.90;;;;;;4993118;28;20026;-48
2023/08/25 05:20:03;;;;;;;9.90;8.55;;;31.90;99.90;;;;;;4992972;28;20035;-47
2023/08/25 05:22:29;;;;;;;9.75;8.60;;;31.90;99.90;;;;;;4993378;28;20382;-48
2023/08/25 05:24:54;;;;;;;9.45;8.40;;;31.90;99.90;;;;;;4993037;28;20041;-47
2023/08/25 05:27:20;;;;;;;9.50;8.60;;;32.00;99.90;;;;;;4993061;28;20045;-48
2023/08/25 05:29:46;;;;;;;12.13;9.55;;;31.90;99.90;;;;;;4992768;28;20022;-47
2023/08/25 05:32:11;;;;;;;14.00;10.95;;;31.90;99.90;;;;;;4992871;28;20065;-47
2023/08/25 05:34:37;;;;;;;11.05;9.80;;;31.90;99.90;;;;;;4992289;28;20018;-48
2023/08/25 05:37:03;;;;;;;13.40;10.35;;;31.90;99.90;;;;;;4992966;28;20391;-48
2023/08/25 05:39:29;;;;;;;13.07;11.25;;;31.90;99.90;;;;;;4992751;28;20080;-48
2023/08/25 05:41:54;;;;;;;13.90;12.43;;;31.90;99.90;;;;;;4992725;28;20029;-47
2023/08/25 05:44:20;;;;;;;15.43;12.40;;;31.90;99.90;;;;;;4992751;28;20114;-48
2023/08/25 05:46:47;;;;;;;15.80;12.88;;;31.90;99.90;;;;;;4991437;28;20027;-48
2023/08/25 05:49:13;;;;;;;16.70;12.95;;;31.90;99.90;;;;;;4992856;28;20026;-47
2023/08/25 05:51:39;;;;;;;15.18;13.45;;;31.80;99.90;;;;;;4992664;28;20081;-48
2023/08/25 05:54:05;;;;;;;19.63;13.20;;;31.90;99.90;;;;;;4992560;28;20113;-48
2023/08/25 05:56:31;;;;;;;21.00;14.07;;;31.90;99.90;;;;;;4992515;28;20037;-48
2023/08/25 05:59:00;;;;;;;15.20;13.60;;;31.90;99.90;;;;;;4992788;28;20026;-47
2023/08/25 06:01:26;;;;;;;16.35;14.20;;;31.90;99.90;;;;;;4992426;28;20522;-47
2023/08/25 06:03:51;;;;;;;16.63;14.65;;;31.80;99.90;;;;;;4992659;28;20054;-47
2023/08/25 06:06:17;;;;;;;17.58;14.77;;;31.90;99.90;;;;;;4992565;28;20076;-48
2023/08/25 06:08:43;;;;;;;27.27;15.75;;;31.90;99.90;;;;;;4992505;28;20038;-48
2023/08/25 06:11:09;;;;;;;19.00;15.38;;;31.80;99.90;;;;;;4992898;28;20026;-49
2023/08/25 06:13:35;;;;;;;19.30;15.40;;;31.80;99.90;;;;;;4991423;28;20035;-48
2023/08/25 06:16:02;;;;;;;19.95;16.50;;;31.80;99.90;;;;;;4992765;28;20042;-48
2023/08/25 06:18:28;;;;;;;18.88;16.55;;;31.80;99.90;;;;;;4991542;28;20034;-48
2023/08/25 06:20:54;;;;;;;18.02;15.60;;;31.80;99.90;;;;;;4992691;28;20018;-48
2023/08/25 06:23:20;;;;;;;19.77;15.05;;;31.80;99.90;;;;;;4992696;28;20501;-48
2023/08/25 06:25:46;;;;;;;18.77;15.65;;;31.80;99.90;;;;;;4992561;28;20022;-48
2023/08/25 06:28:12;;;;;;;18.92;14.63;;;31.80;99.90;;;;;;4992822;28;20030;-48
2023/08/25 06:30:41;;;;;;;16.85;15.07;;;31.80;99.90;;;;;;4992426;28;20037;-48
2023/08/25 06:33:08;;;;;;;18.48;14.43;;;31.80;99.90;;;;;;4991210;28;20480;-48
2023/08/25 06:35:34;;;;;;;;;;;31.80;99.90;;;;;;4992911;28;20030;-48
2023/08/25 06:38:02;;;;;;;17.38;14.38;;;31.80;99.90;;;;;;4992534;28;19917;-49
2023/08/25 06:40:28;;;;;;;15.60;13.90;;;31.80;99.90;;;;;;4992510;28;20030;-48
2023/08/25 06:42:53;;;;;;;16.80;13.32;;;31.80;99.90;;;;;;4992446;28;20077;-48
2023/08/25 06:45:19;;;;;;;17.70;14.32;;;31.80;99.90;;;;;;4993096;28;20030;-48
2023/08/25 06:47:46;;;;;;;16.65;13.35;;;31.80;99.90;;;;;;4996245;28;20030;-48
2023/08/25 06:50:14;;;;;;;16.03;13.10;;;31.80;99.90;;;;;;4996667;28;20434;-48
2023/08/25 06:52:39;;;;;;;13.05;11.52;;;31.80;99.90;;;;;;4996073;28;20351;-48
2023/08/25 06:55:05;;;;;;;16.13;12.90;;;31.80;99.90;;;;;;4996027;28;20026;-48
2023/08/25 06:57:33;;;;;;;13.55;11.82;;;31.80;99.90;;;;;;4995914;28;20489;-48
2023/08/25 06:59:59;;;;;;;14.00;12.13;;;31.80;99.90;;;;;;4995690;28;20459;-48
2023/08/25 07:02:25;;;;;;;13.68;11.30;;;31.80;99.90;;;;;;4995615;28;20156;-48
2023/08/25 07:04:51;;;;;;;14.05;11.25;;;31.80;99.90;;;;;;4995868;28;20084;-48
2023/08/25 07:07:27;;;;;;;14.23;11.35;;;31.80;99.90;;;;;;4994955;28;20026;-48
2023/08/25 07:09:53;;;;;;;15.03;11.00;;;31.80;99.90;;;;;;4995736;28;20026;-48
2023/08/25 07:12:19;;;;;;;12.70;11.07;;;31.80;99.90;;;;;;4995679;28;20018;-48
2023/08/25 07:14:45;;;;;;;13.32;11.27;;;31.90;99.90;;;;;;4995756;28;20041;-49
2023/08/25 07:17:11;;;;;;;11.77;10.68;;;31.90;99.90;;;;;;4995697;28;20359;-48
2023/08/25 07:19:37;;;;;;;12.65;11.35;;;31.90;99.90;;;;;;4995550;28;20584;-49
2023/08/25 07:22:03;;;;;;;12.55;10.60;;;31.90;99.90;;;;;;4995479;28;20053;-48
2023/08/25 07:24:29;;;;;;;12.48;10.27;;;31.90;99.90;;;;;;4994410;28;20018;-48
2023/08/25 07:26:55;;;;;;;11.77;10.57;;;31.80;99.90;;;;;;4995253;28;20033;-48
2023/08/25 07:29:20;;;;;;;12.63;11.27;;;31.80;99.90;;;;;;4995253;28;20448;-48
2023/08/25 07:31:46;;;;;;;11.48;10.27;;;31.90;99.90;;;;;;4994267;28;20022;-48
2023/08/25 07:34:12;;;;;;;14.18;10.60;;;31.90;99.90;;;;;;4995207;28;20088;-48
2023/08/25 07:36:38;;;;;;;12.52;10.82;;;31.90;99.90;;;;;;4995237;28;20556;-48
2023/08/25 07:39:04;;;;;;;12.60;10.13;;;31.90;99.90;;;;;;4995261;28;20073;-48
2023/08/25 07:41:30;;;;;;;11.63;10.50;;;31.90;99.90;;;;;;4995076;28;20026;-48
2023/08/25 07:43:56;;;;;;;13.13;10.85;;;31.90;99.90;;;;;;4994946;28;20072;-48
2023/08/25 07:46:22;;;;;;;13.32;10.60;;;31.90;99.90;;;;;;4995014;28;20145;-47
2023/08/25 07:48:47;;;;;;;12.63;10.00;;;31.90;99.90;;;;;;4995080;28;20034;-48
2023/08/25 07:51:13;;;;;;;12.18;10.15;;;31.90;99.90;;;;;;4994904;28;20034;-48
2023/08/25 07:53:39;;;;;;;11.40;9.43;;;31.90;99.90;;;;;;4994868;28;20113;-48
2023/08/25 07:56:05;;;;;;;10.82;9.68;;;31.90;99.90;;;;;;4994684;28;20498;-47
2023/08/25 07:58:31;;;;;;;10.60;9.48;;;31.90;99.90;;;;;;4993876;28;20015;-48
2023/08/25 08:00:57;;;;;;;10.73;9.60;;;31.90;99.90;;;;;;4994531;28;20049;-47
2023/08/25 08:03:22;;;;;;;10.65;9.60;;;31.90;99.90;;;;;;4994619;28;20027;-47
2023/08/25 08:05:48;;;;;;;11.27;9.82;;;31.90;99.90;;;;;;4994686;28;20081;-48
2023/08/25 08:08:14;;;;;;;10.57;9.48;;;31.90;99.90;;;;;;4994290;28;20034;-47
2023/08/25 08:10:40;;;;;;;12.05;8.93;;;32.00;99.90;;;;;;4994525;28;20034;-47
2023/08/25 08:13:06;;;;;;;10.60;9.38;;;32.00;99.90;;;;;;4994585;28;20110;-47
2023/08/25 08:15:32;;;;;;;10.50;8.70;;;32.00;99.90;;;;;;4994429;28;20478;-48
2023/08/25 08:17:58;;;;;;;10.25;8.88;;;32.00;99.90;;;;;;4994398;28;20019;-47
2023/08/25 08:20:25;;;;;;;11.77;9.40;;;32.00;99.90;;;;;;4994422;28;20073;-48
2023/08/25 08:22:51;;;;;;;9.60;8.60;;;32.00;99.90;;;;;;4994466;28;20029;-47
2023/08/25 08:25:17;;;;;;;10.32;9.32;;;32.00;99.90;;;;;;4994480;28;20038;-47
2023/08/25 08:27:43;;;;;;;11.25;9.07;;;32.00;99.90;;;;;;4994314;28;20034;-47
2023/08/25 08:30:10;;;;;;;10.63;9.00;;;32.00;99.90;;;;;;4994139;28;20027;-47
2023/08/25 08:32:36;;;;;;;;;;;32.00;99.90;;;;;;4994555;28;20054;-47
2023/08/25 08:35:12;;;;;;;10.32;8.43;;;32.00;99.90;;;;;;4994141;28;20376;-47
2023/08/25 08:37:40;;;;;;;9.88;8.55;;;32.00;99.90;;;;;;4994050;28;20037;-47
2023/08/25 08:40:08;;;;;;;9.93;8.35;;;32.00;99.90;;;;;;4993981;28;20374;-47
2023/08/25 08:42:36;;;;;;;10.18;8.57;;;32.00;99.90;;;;;;4993775;28;20469;-47
2023/08/25 08:45:06;;;;;;;;;;;32.00;99.90;;;;;;4994270;28;20113;-47
2023/08/25 08:47:33;;;;;;;10.50;9.43;;;32.00;99.90;;;;;;4993732;28;19914;-47
2023/08/25 08:49:59;;;;;;;13.55;8.93;;;32.00;99.90;;;;;;4993841;28;20030;-47
2023/08/25 08:52:29;;;;;;;11.48;8.82;;;32.00;99.90;;;;;;4993748;28;20037;-47
2023/08/25 08:54:58;;;;;;;9.38;8.45;;;32.10;99.90;;;;;;4993656;28;20028;-47
2023/08/25 08:57:28;;;;;;;12.50;9.20;;;32.00;99.90;;;;;;4993532;28;20065;-47
2023/08/25 09:00:03;;;;;;;10.30;8.95;;;32.10;99.90;;;;;;4993481;28;20054;-47
2023/08/25 09:02:32;;;;;;;10.27;8.68;;;32.00;99.90;;;;;;4993369;28;20094;-47
2023/08/25 09:04:59;;;;;;;10.75;8.95;;;32.00;99.90;;;;;;4993427;28;20026;-47
2023/08/25 09:07:31;;;;;;;8.90;8.07;;;32.00;99.90;;;;;;4993395;28;20014;-47
2023/08/25 09:09:58;;;;;;;9.48;8.30;;;32.00;99.90;;;;;;4993317;28;20026;-47
2023/08/25 09:12:24;;;;;;;9.95;8.40;;;32.00;99.90;;;;;;4993430;28;20030;-47
2023/08/25 09:14:50;;;;;;;9.00;8.10;;;32.10;99.90;;;;;;4993688;28;20412;-47
2023/08/25 09:17:16;;;;;;;9.55;8.43;;;32.10;99.90;;;;;;4993431;28;20054;-47
2023/08/25 09:19:42;;;;;;;11.15;9.63;;;32.10;99.90;;;;;;4993303;28;20111;-47
2023/08/25 09:22:13;;;;;;;9.13;8.23;;;32.10;99.90;;;;;;4993094;28;20033;-47
2023/08/25 09:24:42;;;;;;;10.27;8.13;;;32.10;99.90;;;;;;4993267;28;20081;-47
2023/08/25 09:27:21;;;;;;;9.68;8.60;;;32.10;99.90;;;;;;4993051;28;20463;-48
2023/08/25 09:29:47;;;;;;;11.27;8.13;;;32.10;99.90;;;;;;4991853;28;20034;-48
2023/08/25 09:32:14;;;;;;;9.57;8.15;;;32.10;99.90;;;;;;4993205;28;20026;-48
2023/08/25 09:34:41;;;;;;;10.27;8.23;;;32.10;99.90;;;;;;4993137;28;20073;-47
2023/08/25 09:37:07;;;;;;;;;;;32.10;99.90;;;;;;4993515;28;20026;-47
2023/08/25 09:39:44;;;;;;;9.67;8.67;;;32.10;99.90;;;;;;4993162;28;20001;-48
2023/08/25 09:42:10;;;;;;;10.02;7.57;;;32.10;99.90;;;;;;4991825;28;20040;-48
2023/08/25 09:44:37;;;;;;;8.75;7.80;;;32.10;99.90;;;;;;4992948;28;20057;-49
2023/08/25 09:47:06;;;;;;;8.65;7.72;;;32.10;99.90;;;;;;4992878;28;20030;-47
2023/08/25 09:49:39;;;;;;;8.27;7.45;;;32.10;99.90;;;;;;4992868;28;20498;-47
2023/08/25 09:52:07;;;;;;;8.65;7.75;;;32.10;99.90;;;;;;4992865;28;20552;-47
2023/08/25 09:54:34;;;;;;;9.52;8.38;;;32.20;99.90;;;;;;4992799;28;20102;-49
2023/08/25 09:57:00;;;;;;;10.27;8.07;;;32.20;99.90;;;;;;4992860;28;20130;-48
2023/08/25 09:59:27;;;;;;;9.10;7.95;;;32.20;99.90;;;;;;4992777;28;20386;-48
2023/08/25 10:01:53;;;;;;;9.95;8.18;;;32.20;99.90;;;;;;4992931;28;20068;-47
2023/08/25 10:04:21;;;;;;;8.67;7.87;;;32.20;99.90;;;;;;4992911;28;20077;-48
2023/08/25 10:06:47;;;;;;;9.38;8.35;;;32.20;99.90;;;;;;4992720;28;20089;-47
2023/08/25 10:09:12;;;;;;;8.77;7.93;;;32.20;99.90;;;;;;4992439;28;20034;-48
2023/08/25 10:11:45;;;;;;;10.05;8.40;;;32.20;99.90;;;;;;4992530;28;20368;-47
2023/08/25 10:14:13;;;;;;;8.43;7.53;;;32.20;99.90;;;;;;4992563;28;20030;-47
2023/08/25 10:16:44;;;;;;;9.68;8.45;;;32.20;99.90;;;;;;4992602;28;20057;-47
2023/08/25 10:19:14;;;;;;;8.85;7.80;;;32.20;99.90;;;;;;4992526;28;20482;-48
2023/08/25 10:21:47;;;;;;;8.90;7.80;;;32.20;99.90;;;;;;4995249;28;20027;-48
2023/08/25 10:24:17;;;;;;;8.68;7.25;;;32.30;99.90;;;;;;4995115;28;20508;-47
2023/08/25 10:26:45;;;;;;;10.05;8.07;;;32.30;99.90;;;;;;4996354;28;20038;-48
2023/08/25 10:29:11;;;;;;;;;;;32.30;99.90;;;;;;4996927;28;20157;-48
2023/08/25 10:31:49;;;;;;;8.90;8.00;;;32.30;99.90;;;;;;4996368;28;20345;-47
2023/08/25 10:34:34;;;;;;;8.75;7.60;;;32.30;99.90;;;;;;4996146;28;20417;-48
2023/08/25 10:37:25;;;;;;;11.32;8.23;;;32.40;99.90;;;;;;4996183;28;20053;-48
2023/08/25 10:39:59;;;;;;;10.13;8.48;;;32.30;99.90;;;;;;4991252;28;20451;-48
2023/08/25 10:42:32;;;;;;;9.73;8.73;;;32.30;99.90;;;;;;4996325;28;20053;-48
2023/08/25 10:45:01;;;;;;;8.88;7.47;;;32.40;99.90;;;;;;4996090;28;20029;-48
2023/08/25 10:47:28;;;;;;;9.98;8.48;;;32.40;99.90;;;;;;4996076;28;20030;-48
2023/08/25 10:50:00;;;;;;;11.80;8.95;;;32.40;99.90;;;;;;4996243;28;20033;-48
2023/08/25 10:52:26;;;;;;;10.25;8.50;;;32.40;99.90;;;;;;4996125;28;20089;-48
2023/08/25 10:54:53;;;;;;;10.02;8.20;;;32.40;99.90;;;;;;4994648;28;20422;-48
2023/08/25 10:57:29;;;;;;;9.23;8.32;;;32.50;99.90;;;;;;4995798;28;20033;-48
2023/08/25 10:59:56;;;;;;;11.38;9.65;;;32.50;99.90;;;;;;4995989;28;20084;-48
2023/08/25 11:02:35;;;;;;;;;;;32.50;99.90;;;;;;4996062;28;20390;-47
2023/08/25 11:05:29;;;;;;;10.63;8.82;;;32.50;99.90;;;;;;4995671;28;20350;-48
2023/08/25 11:07:55;;;;;;;13.13;9.50;;;32.50;99.90;;;;;;4995714;28;20081;-48
2023/08/25 11:10:21;;;;;;;9.83;8.83;;;32.50;99.90;;;;;;4995761;28;20375;-48
2023/08/25 11:12:51;;;;;;;11.70;9.67;;;32.50;99.90;;;;;;4995770;28;20256;-48
2023/08/25 11:15:17;;;;;;;10.45;9.00;;;32.50;99.90;;;;;;4995557;28;20033;-48
2023/08/25 11:17:44;;;;;;;11.20;10.00;;;32.50;99.90;;;;;;4995566;28;20374;-48
2023/08/25 11:20:11;;;;;;;10.57;9.20;;;32.60;99.90;;;;;;4995196;28;20026;-47
2023/08/25 11:22:36;;;;;;;14.02;9.77;;;32.60;99.90;;;;;;4995303;28;20052;-47
2023/08/25 11:25:12;;;;;;;11.40;9.23;;;32.60;99.90;;;;;;4995342;28;20026;-47
2023/08/25 11:27:38;;;;;;;10.75;9.50;;;32.60;99.90;;;;;;4995168;28;20054;-47
2023/08/25 11:30:10;;;;;;;10.68;9.57;;;32.60;99.90;;;;;;4995254;28;20510;-47
2023/08/25 11:32:36;;;;;;;10.27;9.07;;;32.60;99.90;;;;;;4994187;28;20363;-47
2023/08/25 11:35:03;;;;;;;9.75;8.75;;;32.60;99.90;;;;;;4995222;28;20030;-47
2023/08/25 11:37:29;;;;;;;14.50;9.48;;;32.70;99.90;;;;;;4995344;28;20019;-47
2023/08/25 11:39:54;;;;;;;9.77;8.80;;;32.60;99.90;;;;;;4995066;28;20026;-47
2023/08/25 11:42:24;;;;;;;11.45;9.43;;;32.60;99.90;;;;;;4994865;28;20479;-48
2023/08/25 11:44:52;;;;;;;10.73;9.30;;;32.60;99.90;;;;;;4994879;28;20102;-48
2023/08/25 11:47:20;;;;;;;10.75;9.18;;;32.70;99.90;;;;;;4994803;28;20085;-47
2023/08/25 11:49:48;;;;;;;10.20;9.02;;;32.70;99.90;;;;;;4995034;28;20102;-48
2023/08/25 11:52:15;;;;;;;10.45;8.75;;;32.70;99.90;;;;;;4994961;28;20019;-48
2023/08/25 11:54:48;;;;;;;9.98;8.90;;;32.70;99.90;;;;;;4994877;28;20505;-48
2023/08/25 11:57:14;;;;;;;9.82;8.82;;;32.70;99.90;;;;;;4994584;28;20061;-48
2023/08/25 11:59:46;;;;;;;11.10;9.95;;;32.70;99.90;;;;;;4994732;28;20023;-48
2023/08/25 12:02:16;;;;;;;10.93;9.82;;;32.70;99.90;;;;;;4994486;28;20517;-48
2023/08/25 12:04:54;;;;;;;10.10;9.10;;;32.70;99.90;;;;;;4994625;28;20034;-48
2023/08/25 12:07:27;;;;;;;11.43;9.40;;;32.80;99.90;;;;;;4994792;28;20352;-47
2023/08/25 12:09:54;;;;;;;11.90;10.57;;;32.80;99.90;;;;;;4994396;28;20066;-48
2023/08/25 12:12:21;;;;;;;;;;;32.80;99.90;;;;;;4994814;28;20644;-48
2023/08/25 12:14:50;;;;;;;10.50;9.43;;;32.80;99.90;;;;;;4994355;28;20333;-48
2023/08/25 12:17:29;;;;;;;11.55;9.43;;;32.80;99.90;;;;;;4994337;28;20058;-48
2023/08/25 12:19:56;;;;;;;10.73;9.63;;;32.80;99.90;;;;;;4994216;28;20026;-48
2023/08/25 12:22:23;;;;;;;10.05;9.05;;;32.80;99.90;;;;;;4994188;28;20026;-48
2023/08/25 12:24:49;;;;;;;11.52;9.38;;;32.80;99.90;;;;;;4994224;28;20030;-47
2023/08/25 12:27:21;;;;;;;10.55;9.40;;;32.80;99.90;;;;;;4994248;28;20371;-48
2023/08/25 12:29:47;;;;;;;10.05;8.85;;;32.80;99.90;;;;;;4992822;28;20367;-48
2023/08/25 12:32:13;;;;;;;13.98;9.45;;;32.80;99.90;;;;;;4994023;28;20033;-47
2023/08/25 12:34:39;;;;;;;12.00;9.48;;;32.90;99.90;;;;;;4994015;28;20027;-48
2023/08/25 12:37:04;;;;;;;10.77;9.68;;;32.80;99.90;;;;;;4994065;28;20045;-48
2023/08/25 12:39:30;;;;;;;12.13;9.23;;;32.90;99.90;;;;;;4994288;28;20041;-47
2023/08/25 12:41:56;;;;;;;9.95;9.02;;;32.90;99.90;;;;;;4994028;28;20157;-48
2023/08/25 12:44:23;;;;;;;10.35;9.35;;;32.90;99.90;;;;;;4993369;28;20513;-47